Time;durP1;ratioP1;P1;durP2;ratioP2;P2;SDS_P1;SDS_P2;PMS_P1;PMS_P2;Temp;Humidity;BMP_temperature;BMP_pressure;BME280_temperature;BME280_humidity;BME280_pressure;Samples;Min_cycle;Max_cycle;Signal;HPM_P1;HPM_P2
2022/10/30 00:01:02;;;;;;;20.35;10.18;;;13.60;99.90;;;;;;5046506;28;20045;-52
2022/10/30 00:03:28;;;;;;;17.85;10.30;;;13.60;99.90;;;;;;5046350;28;20119;-52
2022/10/30 00:05:54;;;;;;;18.73;9.90;;;13.70;99.90;;;;;;5046264;28;20466;-52
2022/10/30 00:08:21;;;;;;;16.35;9.52;;;13.60;99.90;;;;;;5046556;28;20041;-51
2022/10/30 00:10:49;;;;;;;18.98;9.05;;;13.20;99.90;;;;;;5046072;28;20494;-51
2022/10/30 00:13:15;;;;;;;20.88;10.05;;;13.00;99.90;;;;;;5046631;28;20084;-51
2022/10/30 00:15:52;;;;;;;21.15;9.98;;;13.20;99.90;;;;;;5045829;28;20041;-50
2022/10/30 00:18:19;;;;;;;18.98;9.88;;;13.30;99.90;;;;;;5046549;28;20386;-50
2022/10/30 00:20:44;;;;;;;18.70;8.80;;;13.00;99.90;;;;;;5046295;28;20044;-51
2022/10/30 00:23:10;;;;;;;21.52;9.93;;;13.00;99.90;;;;;;5044689;28;20056;-49
2022/10/30 00:25:36;;;;;;;20.08;9.85;;;12.60;99.90;;;;;;5046148;28;20049;-50
2022/10/30 00:28:06;;;;;;;18.38;10.57;;;12.80;99.90;;;;;;5046184;28;20045;-51
2022/10/30 00:30:33;;;;;;;18.20;10.05;;;12.80;99.90;;;;;;5045648;28;20391;-52
2022/10/30 00:32:58;;;;;;;18.30;10.35;;;12.60;99.90;;;;;;5045871;28;20048;-51
2022/10/30 00:35:24;;;;;;;19.88;10.50;;;12.70;99.90;;;;;;5046344;28;20041;-52
2022/10/30 00:37:50;;;;;;;18.40;10.13;;;13.40;99.90;;;;;;5049754;28;20132;-49
2022/10/30 00:40:16;;;;;;;23.98;10.80;;;12.80;99.90;;;;;;5048447;28;20048;-49
2022/10/30 00:42:42;;;;;;;19.75;10.43;;;12.90;99.90;;;;;;5049685;28;20052;-49
2022/10/30 00:45:11;;;;;;;17.95;11.15;;;13.00;99.90;;;;;;5049668;28;20045;-51
2022/10/30 00:47:43;;;;;;;23.00;11.00;;;13.00;99.90;;;;;;5049972;28;20049;-48
2022/10/30 00:50:21;;;;;;;17.65;10.60;;;13.00;99.90;;;;;;5049404;28;20136;-49
2022/10/30 00:53:02;;;;;;;21.52;10.60;;;13.10;99.90;;;;;;5049721;28;20465;-49
2022/10/30 00:55:38;;;;;;;20.70;10.50;;;12.70;99.90;;;;;;5049629;28;20063;-49
2022/10/30 00:58:09;;;;;;;18.88;10.15;;;12.70;99.90;;;;;;5049609;28;20168;-52
2022/10/30 01:00:37;;;;;;;20.73;11.23;;;12.70;99.90;;;;;;5050055;28;20040;-52
2022/10/30 01:03:04;;;;;;;18.38;11.43;;;12.70;99.90;;;;;;5049703;28;20049;-52
2022/10/30 01:05:32;;;;;;;17.83;10.85;;;13.10;99.90;;;;;;5049527;28;20577;-52
2022/10/30 01:07:58;;;;;;;17.90;10.52;;;12.90;99.90;;;;;;5049619;28;20073;-52
2022/10/30 01:10:24;;;;;;;20.52;9.90;;;12.70;99.90;;;;;;5049592;28;20506;-51
2022/10/30 01:12:53;;;;;;;20.85;9.77;;;13.20;99.90;;;;;;5049391;28;20097;-52
2022/10/30 01:15:26;;;;;;;23.05;10.43;;;12.80;99.90;;;;;;5049324;28;20055;-52
2022/10/30 01:18:16;;;;;;;17.40;10.32;;;12.80;99.90;;;;;;5049460;28;20072;-52
2022/10/30 01:20:53;;;;;;;27.90;11.82;;;13.10;99.90;;;;;;5048948;28;20122;-52
2022/10/30 01:23:34;;;;;;;19.10;10.07;;;12.80;99.90;;;;;;5049257;28;20045;-50
2022/10/30 01:26:21;;;;;;;19.83;11.02;;;12.90;99.90;;;;;;5048511;28;20056;-51
2022/10/30 01:29:18;;;;;;;21.35;10.75;;;12.90;99.90;;;;;;5049268;28;20048;-52
2022/10/30 01:32:18;;;;;;;23.60;10.40;;;12.90;99.90;;;;;;5049067;28;20048;-52
2022/10/30 01:35:06;;;;;;;19.00;10.60;;;12.90;99.90;;;;;;5049227;28;20234;-52
2022/10/30 01:37:35;;;;;;;15.55;10.15;;;12.90;99.90;;;;;;5049343;28;20076;-51
2022/10/30 01:40:10;;;;;;;16.70;10.73;;;13.30;99.90;;;;;;5049370;28;20079;-49
2022/10/30 01:42:50;;;;;;;19.58;10.02;;;12.80;99.90;;;;;;5048873;28;20137;-52
2022/10/30 01:45:40;;;;;;;22.17;10.00;;;12.80;99.90;;;;;;5049059;28;20045;-51
2022/10/30 01:48:29;;;;;;;18.23;10.70;;;12.80;99.90;;;;;;5047874;28;20049;-52
2022/10/30 01:51:36;;;;;;;18.17;11.48;;;12.80;99.90;;;;;;5048626;28;20059;-51
2022/10/30 01:54:26;;;;;;;18.83;10.23;;;12.70;99.90;;;;;;5040749;28;20052;-52
2022/10/30 01:57:01;;;;;;;19.15;9.65;;;12.70;99.90;;;;;;5048798;28;20063;-48
2022/10/30 02:00:00;;;;;;;24.52;11.52;;;12.70;99.90;;;;;;5048829;28;20222;-50
2022/10/30 02:02:26;;;;;;;23.38;10.10;;;12.60;99.90;;;;;;5048717;28;20048;-51
2022/10/30 02:04:51;;;;;;;15.38;9.48;;;12.90;99.90;;;;;;5048552;28;20036;-50
2022/10/30 02:07:17;;;;;;;18.70;9.63;;;12.50;99.90;;;;;;5048679;28;20045;-52
2022/10/30 02:09:43;;;;;;;18.98;10.63;;;12.50;99.90;;;;;;5048662;28;20041;-52
2022/10/30 02:12:09;;;;;;;19.15;11.15;;;12.50;99.90;;;;;;5048278;28;20142;-52
2022/10/30 02:14:39;;;;;;;25.77;11.23;;;13.00;99.90;;;;;;5048005;28;20483;-52
2022/10/30 02:17:06;;;;;;;19.80;10.23;;;12.90;99.90;;;;;;5048164;28;20041;-52
2022/10/30 02:19:32;;;;;;;23.10;11.40;;;12.90;99.90;;;;;;5048204;28;20041;-52
2022/10/30 02:21:58;;;;;;;20.42;10.20;;;12.40;99.90;;;;;;5047783;28;20044;-51
2022/10/30 02:24:24;;;;;;;20.27;10.52;;;12.60;99.90;;;;;;5048320;28;20055;-51
2022/10/30 02:26:49;;;;;;;17.55;10.20;;;12.80;99.90;;;;;;5048019;28;20037;-51
2022/10/30 02:29:19;;;;;;;20.73;9.80;;;12.40;99.90;;;;;;5048039;28;20554;-51
2022/10/30 02:31:45;;;;;;;20.70;10.65;;;12.80;99.90;;;;;;5048137;28;20639;-51
2022/10/30 02:34:11;;;;;;;18.85;10.25;;;12.60;99.90;;;;;;5047481;28;20048;-52
2022/10/30 02:36:36;;;;;;;18.27;10.75;;;12.50;99.90;;;;;;5047743;28;20044;-52
2022/10/30 02:39:02;;;;;;;27.30;10.52;;;13.00;99.90;;;;;;5048042;28;20037;-51
2022/10/30 02:41:28;;;;;;;37.15;11.07;;;12.40;99.90;;;;;;5047418;28;20076;-48
2022/10/30 02:43:54;;;;;;;24.75;11.88;;;12.80;99.90;;;;;;5047779;28;20037;-51
2022/10/30 02:46:20;;;;;;;24.10;10.52;;;12.70;99.90;;;;;;5046433;28;20085;-51
2022/10/30 02:48:46;;;;;;;23.00;10.68;;;12.80;99.90;;;;;;5046297;28;20057;-51
2022/10/30 02:51:11;;;;;;;21.25;11.55;;;12.80;99.90;;;;;;5047662;28;20102;-47
2022/10/30 02:53:37;;;;;;;20.10;11.02;;;12.50;99.90;;;;;;5047548;28;20479;-51
2022/10/30 02:56:05;;;;;;;23.63;10.65;;;12.40;99.90;;;;;;5047312;28;20758;-49
2022/10/30 02:58:31;;;;;;;19.02;10.68;;;12.40;99.90;;;;;;5046704;28;20045;-47
2022/10/30 03:00:56;;;;;;;18.73;9.85;;;12.70;99.90;;;;;;5047075;28;20051;-52
2022/10/30 03:03:22;;;;;;;17.05;9.88;;;12.60;99.90;;;;;;5047429;28;20462;-51
2022/10/30 03:05:48;;;;;;;16.15;10.20;;;12.20;99.90;;;;;;5047218;28;20526;-52
2022/10/30 03:08:13;;;;;;;23.77;11.27;;;12.40;99.90;;;;;;5047226;28;20083;-50
2022/10/30 03:10:39;;;;;;;23.10;10.38;;;13.00;99.90;;;;;;5047378;28;20049;-50
2022/10/30 03:13:04;;;;;;;20.10;10.30;;;12.10;99.90;;;;;;5047166;28;20049;-51
2022/10/30 03:15:30;;;;;;;16.27;10.10;;;12.10;99.90;;;;;;5046842;28;20041;-49
2022/10/30 03:17:56;;;;;;;18.95;10.32;;;12.00;99.90;;;;;;5047496;28;20048;-50
2022/10/30 03:20:21;;;;;;;18.30;11.20;;;11.70;99.90;;;;;;5047165;28;20143;-51
2022/10/30 03:22:47;;;;;;;16.52;9.95;;;11.90;99.90;;;;;;5047316;28;20502;-50
2022/10/30 03:25:13;;;;;;;27.90;11.73;;;12.50;99.90;;;;;;5045612;28;20513;-50
2022/10/30 03:27:38;;;;;;;21.02;10.88;;;11.90;99.90;;;;;;5046798;28;20049;-52
2022/10/30 03:30:04;;;;;;;21.73;10.98;;;11.90;99.90;;;;;;5046722;28;20474;-49
2022/10/30 03:32:30;;;;;;;17.55;11.05;;;11.90;99.90;;;;;;5046885;28;20049;-49
2022/10/30 03:34:56;;;;;;;25.50;11.25;;;12.00;99.90;;;;;;5046519;28;20490;-51
2022/10/30 03:37:21;;;;;;;24.55;11.82;;;12.00;99.90;;;;;;5046644;28;20044;-50
2022/10/30 03:39:47;;;;;;;23.02;10.68;;;12.10;99.90;;;;;;5046733;28;20808;-50
2022/10/30 03:42:13;;;;;;;22.02;12.63;;;11.80;99.90;;;;;;5046637;28;20411;-52
2022/10/30 03:44:38;;;;;;;18.58;12.23;;;11.90;99.90;;;;;;5046318;28;20402;-51
2022/10/30 03:47:04;;;;;;;20.52;10.52;;;11.90;99.90;;;;;;5046574;28;20048;-52
2022/10/30 03:49:30;;;;;;;20.65;11.55;;;11.80;99.90;;;;;;5046140;28;20131;-49
2022/10/30 03:51:55;;;;;;;17.27;11.73;;;11.80;99.90;;;;;;5045033;28;20106;-51
2022/10/30 03:54:21;;;;;;;19.05;11.43;;;11.90;99.90;;;;;;5046973;28;20048;-48
2022/10/30 03:56:46;;;;;;;21.48;11.30;;;11.60;99.90;;;;;;5047107;28;20210;-49
2022/10/30 03:59:12;;;;;;;19.23;10.70;;;11.60;99.90;;;;;;5046927;28;20041;-48
2022/10/30 04:01:38;;;;;;;20.50;11.27;;;11.50;99.90;;;;;;5046767;28;20457;-48
2022/10/30 04:04:03;;;;;;;25.67;11.73;;;11.40;99.90;;;;;;5046847;28;20371;-48
2022/10/30 04:06:29;;;;;;;19.15;12.07;;;11.40;99.90;;;;;;5045789;28;20052;-51
2022/10/30 04:08:55;;;;;;;21.88;12.45;;;11.40;99.90;;;;;;5046386;28;20071;-52
2022/10/30 04:11:20;;;;;;;21.10;11.27;;;11.40;99.90;;;;;;5046072;28;20411;-51
2022/10/30 04:13:46;;;;;;;24.30;12.13;;;11.20;99.90;;;;;;5046367;28;20375;-50
2022/10/30 04:16:12;;;;;;;24.05;12.48;;;11.30;99.90;;;;;;5046158;28;20471;-51
2022/10/30 04:18:37;;;;;;;20.80;12.13;;;11.20;99.90;;;;;;5046360;28;20120;-49
2022/10/30 04:21:03;;;;;;;21.95;11.95;;;11.30;99.90;;;;;;5046105;28;20486;-51
2022/10/30 04:23:29;;;;;;;21.20;12.18;;;11.30;99.90;;;;;;5046452;28;20364;-50
2022/10/30 04:25:55;;;;;;;26.77;12.57;;;11.30;99.90;;;;;;5046588;28;20048;-52
2022/10/30 04:28:20;;;;;;;26.23;11.45;;;11.20;99.90;;;;;;5035760;28;20041;-52
2022/10/30 04:30:46;;;;;;;21.60;12.38;;;11.50;99.90;;;;;;5026601;28;20057;-52
2022/10/30 04:33:13;;;;;;;21.95;12.38;;;11.20;99.90;;;;;;5026574;28;20513;-50
2022/10/30 04:35:40;;;;;;;27.77;12.20;;;11.20;99.90;;;;;;5046063;28;20403;-51
2022/10/30 04:38:11;;;;;;;22.80;11.57;;;11.40;99.90;;;;;;5046178;28;20409;-51
2022/10/30 04:40:39;;;;;;;20.73;12.23;;;11.30;99.90;;;;;;5046051;28;20048;-51
2022/10/30 04:43:06;;;;;;;24.98;12.52;;;11.10;99.90;;;;;;5046669;28;20136;-51
2022/10/30 04:45:31;;;;;;;23.55;12.60;;;11.30;99.90;;;;;;5046203;28;20045;-52
2022/10/30 04:48:12;;;;;;;18.63;12.23;;;11.60;99.90;;;;;;5044790;28;20396;-51
2022/10/30 04:50:38;;;;;;;24.70;12.98;;;11.30;99.90;;;;;;5045335;28;20049;-51
2022/10/30 04:53:18;;;;;;;24.13;12.57;;;11.10;99.90;;;;;;5046211;28;20040;-51
2022/10/30 04:55:44;;;;;;;24.67;13.05;;;11.30;99.90;;;;;;5045406;28;20041;-52
2022/10/30 04:58:10;;;;;;;22.70;12.10;;;11.20;99.90;;;;;;5045972;28;20375;-51
2022/10/30 05:00:36;;;;;;;23.17;12.73;;;11.10;99.90;;;;;;5045416;28;20049;-51
2022/10/30 05:03:02;;;;;;;22.33;12.43;;;11.20;99.90;;;;;;5045550;28;20122;-51
2022/10/30 05:05:28;;;;;;;23.65;13.55;;;11.00;99.90;;;;;;5045689;28;20048;-52
2022/10/30 05:07:54;;;;;;;25.55;12.85;;;11.10;99.90;;;;;;5045464;28;20485;-52
2022/10/30 05:10:20;;;;;;;25.23;14.40;;;11.10;99.90;;;;;;5045691;28;20478;-51
2022/10/30 05:12:46;;;;;;;23.38;12.50;;;11.30;99.90;;;;;;5045513;28;20116;-48
2022/10/30 05:15:12;;;;;;;28.00;12.38;;;11.00;99.90;;;;;;5045915;28;20037;-51
2022/10/30 05:17:38;;;;;;;28.73;14.02;;;11.00;99.90;;;;;;5045278;28;20037;-51
2022/10/30 05:20:05;;;;;;;27.13;13.93;;;10.80;99.90;;;;;;5045520;28;20486;-52
2022/10/30 05:22:31;;;;;;;30.85;15.73;;;11.00;99.90;;;;;;5046073;28;20037;-50
2022/10/30 05:24:57;;;;;;;29.15;14.13;;;11.10;99.90;;;;;;5048986;28;20110;-52
2022/10/30 05:27:23;;;;;;;26.45;14.32;;;11.40;99.90;;;;;;5049025;28;20430;-51
2022/10/30 05:29:48;;;;;;;23.15;13.75;;;11.00;99.90;;;;;;5048774;28;20076;-51
2022/10/30 05:32:14;;;;;;;24.70;14.73;;;11.20;99.90;;;;;;5048783;28;20049;-52
2022/10/30 05:34:39;;;;;;;26.42;14.32;;;11.00;99.90;;;;;;5048646;28;20041;-52
2022/10/30 05:37:05;;;;;;;29.35;14.48;;;11.40;99.90;;;;;;5048954;28;20045;-51
2022/10/30 05:39:31;;;;;;;22.58;13.98;;;11.30;99.90;;;;;;5048844;28;20037;-50
2022/10/30 05:41:56;;;;;;;27.15;14.00;;;11.40;99.90;;;;;;5048758;28;20041;-49
2022/10/30 05:44:22;;;;;;;25.85;14.43;;;11.10;99.90;;;;;;5049353;28;20094;-50
2022/10/30 05:46:48;;;;;;;28.95;14.07;;;12.00;99.90;;;;;;5048342;28;20049;-49
2022/10/30 05:49:13;;;;;;;22.63;13.90;;;11.30;99.90;;;;;;5048616;28;20056;-51
2022/10/30 05:51:39;;;;;;;28.20;14.80;;;11.80;99.90;;;;;;5048275;28;20379;-49
2022/10/30 05:54:05;;;;;;;29.05;14.43;;;11.20;99.90;;;;;;5048226;28;20048;-49
2022/10/30 05:56:30;;;;;;;29.83;15.20;;;11.10;99.90;;;;;;5048119;28;20045;-51
2022/10/30 05:58:56;;;;;;;26.02;14.57;;;11.40;99.90;;;;;;5048615;28;20040;-50
2022/10/30 06:01:22;;;;;;;23.60;13.07;;;11.50;99.90;;;;;;5048782;28;20045;-52
2022/10/30 06:03:47;;;;;;;26.92;13.70;;;11.30;99.90;;;;;;5048302;28;20041;-53
2022/10/30 06:06:13;;;;;;;22.73;14.20;;;11.10;99.90;;;;;;5048118;28;20134;-49
2022/10/30 06:08:38;;;;;;;29.70;13.60;;;11.80;99.90;;;;;;5047932;28;20132;-50
2022/10/30 06:11:04;;;;;;;20.67;14.27;;;11.50;99.90;;;;;;5048021;28;20041;-50
2022/10/30 06:13:30;;;;;;;29.92;14.57;;;11.50;99.90;;;;;;5048036;28;20041;-50
2022/10/30 06:15:55;;;;;;;23.00;14.07;;;11.30;99.90;;;;;;5047973;28;20041;-49
2022/10/30 06:18:22;;;;;;;27.73;15.55;;;11.30;99.90;;;;;;5047600;28;20052;-52
2022/10/30 06:20:47;;;;;;;27.73;15.10;;;11.80;99.90;;;;;;5047708;28;20051;-51
2022/10/30 06:23:14;;;;;;;27.60;14.95;;;11.40;99.90;;;;;;5047956;28;20049;-50
2022/10/30 06:25:39;;;;;;;29.90;14.60;;;11.50;99.90;;;;;;5048237;28;20049;-50
2022/10/30 06:28:05;;;;;;;37.45;14.98;;;11.30;99.90;;;;;;5047582;28;20103;-50
2022/10/30 06:30:32;;;;;;;27.42;15.00;;;11.30;99.90;;;;;;5047857;28;20534;-51
2022/10/30 06:32:59;;;;;;;26.30;13.68;;;10.90;99.90;;;;;;5047351;28;20055;-50
2022/10/30 06:35:25;;;;;;;26.85;15.98;;;11.30;99.90;;;;;;5047406;28;20407;-51
2022/10/30 06:37:53;;;;;;;26.00;14.70;;;11.10;99.90;;;;;;5047350;28;20502;-51
2022/10/30 06:40:19;;;;;;;28.83;15.85;;;11.70;99.90;;;;;;5047895;28;20047;-51
2022/10/30 06:42:46;;;;;;;26.23;15.00;;;11.40;99.90;;;;;;5046186;28;20687;-50
2022/10/30 06:45:14;;;;;;;25.70;15.48;;;11.10;99.90;;;;;;5047612;28;20052;-49
2022/10/30 06:47:40;;;;;;;27.23;14.77;;;11.70;99.90;;;;;;5047374;28;20068;-48
2022/10/30 06:50:09;;;;;;;23.25;14.32;;;11.20;99.90;;;;;;5045729;28;20063;-50
2022/10/30 06:52:35;;;;;;;30.63;15.13;;;11.10;99.90;;;;;;5047245;28;20053;-49
2022/10/30 06:55:01;;;;;;;27.02;15.63;;;11.10;99.90;;;;;;5047207;28;20036;-51
2022/10/30 06:57:26;;;;;;;30.73;14.95;;;11.20;99.90;;;;;;5047242;28;20517;-48
2022/10/30 06:59:52;;;;;;;25.60;14.45;;;11.10;99.90;;;;;;5047534;28;20052;-47
2022/10/30 07:02:18;;;;;;;33.78;16.52;;;11.10;99.90;;;;;;5047233;28;20123;-50
2022/10/30 07:04:44;;;;;;;27.48;14.80;;;11.20;99.90;;;;;;5047551;28;20513;-51
2022/10/30 07:07:11;;;;;;;29.92;15.55;;;11.30;99.90;;;;;;5046513;28;20052;-51
2022/10/30 07:09:37;;;;;;;29.58;16.65;;;11.70;99.90;;;;;;5047525;28;20045;-48
2022/10/30 07:12:02;;;;;;;26.15;15.57;;;11.20;99.90;;;;;;5046991;28;20043;-48
2022/10/30 07:14:28;;;;;;;29.20;16.65;;;11.10;99.90;;;;;;5047590;28;20053;-48
2022/10/30 07:16:54;;;;;;;29.40;15.10;;;11.40;99.90;;;;;;5046971;28;20041;-49
2022/10/30 07:19:21;;;;;;;28.75;16.05;;;11.60;99.90;;;;;;5047343;28;20094;-51
2022/10/30 07:21:47;;;;;;;28.83;15.90;;;11.60;99.90;;;;;;5046996;28;20049;-48
2022/10/30 07:24:12;;;;;;;28.08;15.90;;;11.40;99.90;;;;;;5047170;28;20122;-50
2022/10/30 07:26:38;;;;;;;27.10;15.77;;;11.40;99.90;;;;;;5047199;28;20132;-51
2022/10/30 07:29:04;;;;;;;32.67;17.75;;;11.40;99.90;;;;;;5046943;28;20076;-52
2022/10/30 07:31:30;;;;;;;29.50;15.90;;;11.50;99.90;;;;;;5047321;28;20495;-48
2022/10/30 07:33:56;;;;;;;29.60;17.25;;;11.60;99.90;;;;;;5046291;28;20478;-49
2022/10/30 07:36:22;;;;;;;26.83;17.17;;;11.80;99.90;;;;;;5046843;28;20048;-49
2022/10/30 07:38:52;;;;;;;30.38;16.77;;;11.70;99.90;;;;;;5046888;28;20048;-48
2022/10/30 07:41:18;;;;;;;27.85;16.65;;;11.80;99.90;;;;;;5046770;28;20076;-49
2022/10/30 07:43:44;;;;;;;30.05;17.35;;;11.90;99.90;;;;;;5046699;28;20056;-49
2022/10/30 07:46:10;;;;;;;25.05;15.32;;;11.90;99.90;;;;;;5045994;28;20044;-49
2022/10/30 07:48:36;;;;;;;26.30;16.10;;;12.00;99.90;;;;;;5046359;28;20563;-48
2022/10/30 07:51:02;;;;;;;28.45;17.00;;;12.40;99.90;;;;;;5046384;28;20056;-52
2022/10/30 07:53:28;;;;;;;28.95;16.02;;;12.50;99.90;;;;;;5046423;28;20033;-50
2022/10/30 07:55:55;;;;;;;28.17;15.50;;;12.20;99.90;;;;;;5046003;28;20052;-50
2022/10/30 07:58:20;;;;;;;25.92;17.55;;;12.60;99.90;;;;;;5045964;28;20055;-49
2022/10/30 08:00:47;;;;;;;30.50;17.02;;;12.70;99.90;;;;;;5046180;28;20132;-49
2022/10/30 08:03:12;;;;;;;27.42;16.23;;;12.60;99.90;;;;;;5045866;28;20053;-52
2022/10/30 08:05:38;;;;;;;30.85;16.40;;;12.70;99.90;;;;;;5046125;28;20056;-50
2022/10/30 08:08:04;;;;;;;23.38;15.68;;;13.10;99.90;;;;;;5046082;28;20037;-51
2022/10/30 08:10:30;;;;;;;28.13;16.45;;;12.90;99.90;;;;;;5046750;28;20055;-48
2022/10/30 08:12:56;;;;;;;27.20;15.60;;;12.90;99.90;;;;;;5046417;28;20394;-49
2022/10/30 08:15:22;;;;;;;24.35;15.75;;;13.30;99.90;;;;;;5046091;28;20052;-50
2022/10/30 08:17:49;;;;;;;28.00;16.30;;;13.10;99.90;;;;;;5045719;28;20049;-48
2022/10/30 08:20:18;;;;;;;31.38;16.50;;;13.20;99.90;;;;;;5045371;28;20561;-48
2022/10/30 08:22:46;;;;;;;24.23;15.77;;;13.20;99.90;;;;;;5045592;28;20084;-50
2022/10/30 08:25:11;;;;;;;30.05;16.65;;;13.70;99.90;;;;;;5046049;28;20570;-51
2022/10/30 08:27:37;;;;;;;28.95;17.27;;;13.50;99.90;;;;;;5046069;28;20148;-51
2022/10/30 08:30:03;;;;;;;25.10;14.90;;;13.70;99.90;;;;;;5045897;28;20458;-52
2022/10/30 08:32:29;;;;;;;26.52;15.20;;;13.70;99.90;;;;;;5045468;28;20060;-52
2022/10/30 08:34:54;;;;;;;26.25;14.10;;;13.80;99.90;;;;;;5045731;28;20036;-52
2022/10/30 08:37:20;;;;;;;24.63;14.63;;;;;;;;;;5045234;28;20037;-52
2022/10/30 08:39:46;;;;;;;32.20;15.85;;;14.00;99.90;;;;;;5046118;28;20048;-57
2022/10/30 08:42:11;;;;;;;23.95;14.75;;;14.10;99.90;;;;;;5008393;28;20045;-55
2022/10/30 08:44:37;;;;;;;28.10;14.88;;;14.20;99.90;;;;;;5036953;28;20033;-57
2022/10/30 08:47:03;;;;;;;22.60;15.10;;;14.30;99.90;;;;;;5040480;28;20040;-57
2022/10/30 08:49:29;;;;;;;23.38;15.13;;;14.40;99.90;;;;;;5039683;28;20061;-58
2022/10/30 08:51:54;;;;;;;24.98;15.57;;;14.50;99.90;;;;;;5038980;28;20041;-57
2022/10/30 08:54:20;;;;;;;18.40;13.27;;;14.60;99.90;;;;;;5037409;28;20044;-56
2022/10/30 08:56:46;;;;;;;27.58;14.57;;;14.70;99.90;;;;;;5040239;28;20037;-57
2022/10/30 08:59:12;;;;;;;29.70;15.45;;;14.80;99.90;;;;;;5043987;28;20044;-57
2022/10/30 09:01:37;;;;;;;26.60;14.38;;;14.90;99.90;;;;;;5041706;28;20048;-57
2022/10/30 09:04:03;;;;;;;27.15;14.35;;;15.10;99.90;;;;;;5043919;28;20529;-57
2022/10/30 09:06:30;;;;;;;24.48;14.35;;;15.20;99.90;;;;;;5042520;28;20138;-57
2022/10/30 09:08:56;;;;;;;23.15;14.45;;;15.30;99.90;;;;;;5043637;28;20049;-56
2022/10/30 09:11:21;;;;;;;24.13;15.05;;;15.30;99.90;;;;;;5043572;28;20040;-56
2022/10/30 09:13:47;;;;;;;23.77;14.75;;;15.40;99.90;;;;;;5043678;28;20142;-57
2022/10/30 09:16:13;;;;;;;24.83;14.80;;;15.50;99.90;;;;;;5043741;28;20036;-57
2022/10/30 09:18:38;;;;;;;23.33;14.15;;;15.50;99.90;;;;;;5043216;28;20037;-56
2022/10/30 09:21:04;;;;;;;26.25;14.55;;;15.70;99.90;;;;;;5043235;28;20052;-56
2022/10/30 09:23:30;;;;;;;20.35;13.25;;;15.70;99.90;;;;;;5043237;28;20395;-56
2022/10/30 09:25:58;;;;;;;24.10;13.70;;;15.80;99.90;;;;;;5044098;28;20063;-56
2022/10/30 09:28:24;;;;;;;22.90;12.68;;;15.90;99.90;;;;;;5025556;28;20566;-57
2022/10/30 09:30:51;;;;;;;21.15;13.25;;;16.00;99.90;;;;;;5025923;28;20032;-57
2022/10/30 09:33:17;;;;;;;22.48;12.95;;;16.10;99.90;;;;;;5043478;28;20033;-57
2022/10/30 09:35:43;;;;;;;24.67;12.93;;;16.20;99.90;;;;;;5044086;28;20041;-57
2022/10/30 09:38:09;;;;;;;24.70;14.20;;;16.20;99.90;;;;;;5042554;28;20043;-56
2022/10/30 09:40:53;;;;;;;24.02;12.45;;;16.30;99.90;;;;;;5043159;28;20091;-56
2022/10/30 09:43:30;;;;;;;24.50;13.48;;;16.40;99.90;;;;;;5028570;28;20136;-57
2022/10/30 09:46:28;;;;;;;23.23;12.88;;;16.50;99.90;;;;;;5041008;28;20053;-57
2022/10/30 09:49:21;;;;;;;20.20;12.07;;;16.60;99.90;;;;;;4972239;28;20069;-57
2022/10/30 09:52:09;;;;;;;20.48;12.05;;;16.70;99.90;;;;;;5042845;28;20478;-57
2022/10/30 09:54:35;;;;;;;23.83;12.60;;;16.70;99.90;;;;;;5041858;28;20529;-57
2022/10/30 09:57:34;;;;;;;23.00;13.23;;;16.80;99.90;;;;;;5042153;28;20497;-50
2022/10/30 10:00:09;;;;;;;20.23;12.00;;;16.90;99.90;;;;;;5044072;28;20033;-48
2022/10/30 10:02:37;;;;;;;17.63;12.23;;;16.90;99.90;;;;;;5025710;28;20045;-50
2022/10/30 10:05:15;;;;;;;25.08;11.48;;;17.00;99.90;;;;;;5011494;28;20044;-47
2022/10/30 10:07:46;;;;;;;22.05;13.20;;;17.00;99.90;;;;;;5026113;28;20045;-58
2022/10/30 10:10:31;;;;;;;27.13;12.35;;;17.00;99.90;;;;;;5031703;28;20044;-53
2022/10/30 10:12:57;;;;;;;19.80;11.30;;;17.10;99.90;;;;;;5034034;28;20048;-53
2022/10/30 10:15:38;;;;;;;22.63;12.35;;;17.20;99.90;;;;;;5033387;28;20469;-52
2022/10/30 10:18:13;;;;;;;21.88;12.82;;;17.30;99.90;;;;;;5034761;28;20052;-47
2022/10/30 10:20:42;;;;;;;21.35;11.35;;;17.20;99.90;;;;;;5031313;28;20775;-51
2022/10/30 10:23:23;;;;;;;21.15;11.50;;;17.30;99.90;;;;;;5032826;28;20048;-55
2022/10/30 10:25:53;;;;;;;27.47;12.27;;;17.40;99.90;;;;;;5032494;28;20041;-48
2022/10/30 10:28:37;;;;;;;21.73;11.63;;;17.50;99.90;;;;;;5033223;28;20049;-55
2022/10/30 10:31:24;;;;;;;22.08;11.20;;;17.60;99.90;;;;;;5034077;28;20045;-53
2022/10/30 10:33:55;;;;;;;19.92;10.82;;;17.70;99.90;;;;;;5032171;28;20037;-56
2022/10/30 10:37:19;;;;;;;22.83;12.02;;;17.80;99.90;;;;;;5033324;28;20475;-54
2022/10/30 10:39:59;;;;;;;20.35;10.80;;;17.90;99.90;;;;;;5024742;28;20057;-49
2022/10/30 10:42:42;;;;;;;22.42;10.85;;;17.90;99.90;;;;;;5018041;28;20049;-50
2022/10/30 10:45:38;;;;;;;21.20;11.40;;;18.00;99.90;;;;;;5026565;28;20045;-47
2022/10/30 10:48:33;;;;;;;19.15;9.57;;;18.00;99.90;;;;;;5025567;28;20482;-49
2022/10/30 10:51:13;;;;;;;26.52;11.30;;;18.10;99.90;;;;;;5014737;28;20667;-51
2022/10/30 10:53:42;;;;;;;20.23;9.30;;;18.20;99.90;;;;;;5033064;28;20036;-51
2022/10/30 10:56:09;;;;;;;20.77;9.68;;;18.20;99.90;;;;;;5030750;28;20501;-50
2022/10/30 10:59:07;;;;;;;18.77;10.18;;;18.30;99.90;;;;;;5028594;28;20364;-52
2022/10/30 11:01:38;;;;;;;14.43;8.88;;;18.50;99.90;;;;;;5020232;28;20057;-52
2022/10/30 11:04:33;;;;;;;21.65;9.25;;;18.30;99.90;;;;;;5027042;28;20056;-51
2022/10/30 11:07:16;;;;;;;19.77;10.95;;;18.40;99.90;;;;;;5030814;28;20791;-51
2022/10/30 11:09:43;;;;;;;19.25;9.52;;;18.30;99.90;;;;;;5033190;28;20128;-58
2022/10/30 11:12:09;;;;;;;14.00;9.30;;;18.30;99.90;;;;;;5032380;28;20807;-56
2022/10/30 11:14:36;;;;;;;16.67;8.88;;;18.40;99.90;;;;;;5032313;28;20082;-60
2022/10/30 11:17:14;;;;;;;15.57;9.10;;;18.30;99.90;;;;;;5031452;28;20562;-54
2022/10/30 11:19:39;;;;;;;13.60;8.35;;;18.40;99.90;;;;;;5033283;28;20029;-51
2022/10/30 11:22:35;;;;;;;23.05;10.05;;;18.40;99.90;;;;;;5034537;28;20061;-52
2022/10/30 11:25:21;;;;;;;19.58;9.40;;;18.40;99.90;;;;;;5032943;28;20029;-52
2022/10/30 11:27:58;;;;;;;15.55;9.23;;;18.40;99.90;;;;;;5029936;28;20617;-54
2022/10/30 11:30:27;;;;;;;19.45;9.50;;;18.40;99.90;;;;;;5033933;28;20047;-55
2022/10/30 11:32:54;;;;;;;17.77;9.70;;;18.40;99.90;;;;;;5032756;28;20481;-53
2022/10/30 11:35:21;;;;;;;18.10;9.50;;;18.40;99.90;;;;;;5031565;28;20040;-55
2022/10/30 11:38:09;;;;;;;22.92;9.18;;;18.40;99.90;;;;;;5031059;28;20486;-55
2022/10/30 11:40:35;;;;;;;15.02;9.75;;;18.40;99.90;;;;;;5032961;28;20083;-56
2022/10/30 11:43:03;;;;;;;19.65;10.63;;;18.40;99.90;;;;;;5014117;28;20140;-52
2022/10/30 11:45:36;;;;;;;16.10;9.55;;;18.50;99.90;;;;;;5026137;28;20049;-55
2022/10/30 11:48:10;;;;;;;15.90;9.23;;;18.50;99.90;;;;;;5027984;28;20379;-54
2022/10/30 11:50:37;;;;;;;18.60;9.18;;;18.50;99.90;;;;;;5031491;28;20098;-55
2022/10/30 11:53:11;;;;;;;15.10;9.15;;;18.60;99.90;;;;;;5032508;28;20045;-54
2022/10/30 11:55:40;;;;;;;18.35;9.20;;;18.60;99.90;;;;;;5032978;28;20025;-55
2022/10/30 11:58:10;;;;;;;19.45;9.05;;;18.70;99.90;;;;;;5029751;28;20037;-55
2022/10/30 12:00:39;;;;;;;17.70;8.55;;;18.70;99.90;;;;;;5031325;28;20053;-57
2022/10/30 12:03:42;;;;;;;14.85;8.68;;;18.60;99.90;;;;;;5025872;28;20041;-55
2022/10/30 12:06:17;;;;;;;14.82;8.43;;;18.70;99.90;;;;;;5031626;28;20041;-53
2022/10/30 12:08:57;;;;;;;19.02;8.80;;;18.60;99.90;;;;;;5030211;28;20197;-54
2022/10/30 12:11:30;;;;;;;14.45;7.93;;;18.70;99.90;;;;;;5031358;28;20040;-57
2022/10/30 12:13:57;;;;;;;13.73;8.05;;;18.80;99.90;;;;;;5030846;28;20041;-53
2022/10/30 12:16:23;;;;;;;20.30;8.48;;;18.80;99.90;;;;;;5031495;28;20089;-50
2022/10/30 12:18:57;;;;;;;13.32;8.23;;;18.80;99.90;;;;;;5032391;28;20103;-54
2022/10/30 12:21:24;;;;;;;16.63;8.15;;;18.90;99.90;;;;;;5031656;28;20045;-50
2022/10/30 12:24:00;;;;;;;14.20;7.95;;;18.90;99.90;;;;;;5033162;28;20601;-53
2022/10/30 12:26:28;;;;;;;18.92;9.10;;;18.90;99.90;;;;;;5032146;28;20419;-49
2022/10/30 12:29:03;;;;;;;16.67;8.07;;;19.00;99.90;;;;;;5031081;28;20045;-49
2022/10/30 12:31:38;;;;;;;17.25;7.78;;;18.90;99.90;;;;;;5033275;28;20112;-48
2022/10/30 12:34:25;;;;;;;16.08;7.90;;;18.90;99.90;;;;;;5033181;28;20567;-46
2022/10/30 12:36:58;;;;;;;17.38;8.35;;;18.90;99.90;;;;;;5037110;28;20029;-46
2022/10/30 12:39:34;;;;;;;19.17;7.80;;;19.00;99.90;;;;;;5036407;28;20401;-48
2022/10/30 12:42:07;;;;;;;20.20;7.20;;;19.00;99.90;;;;;;5012771;28;20060;-52